sensor_id;sensor_type;location;lat;lon;timestamp;temperature;humidity
17599;DHT22;8918;52.092;5.232;2023-10-31T00:01:17;9.90;99.90
17599;DHT22;8918;52.092;5.232;2023-10-31T00:03:42;9.90;99.90
17599;DHT22;8918;52.092;5.232;2023-10-31T00:06:10;9.90;99.90
17599;DHT22;8918;52.092;5.232;2023-10-31T00:08:35;9.90;99.90
17599;DHT22;8918;52.092;5.232;2023-10-31T00:11:01;10.00;99.90
17599;DHT22;8918;52.092;5.232;2023-10-31T00:13:26;10.00;99.90
17599;DHT22;8918;52.092;5.232;2023-10-31T00:15:52;10.00;99.90
17599;DHT22;8918;52.092;5.232;2023-10-31T00:18:18;10.00;99.90
17599;DHT22;8918;52.092;5.232;2023-10-31T00:20:43;10.00;99.90
17599;DHT22;8918;52.092;5.232;2023-10-31T00:23:09;10.00;99.90
17599;DHT22;8918;52.092;5.232;2023-10-31T00:25:34;10.00;99.90
17599;DHT22;8918;52.092;5.232;2023-10-31T00:28:00;10.00;99.90
17599;DHT22;8918;52.092;5.232;2023-10-31T00:30:25;10.10;99.90
17599;DHT22;8918;52.092;5.232;2023-10-31T00:32:51;10.10;99.90
17599;DHT22;8918;52.092;5.232;2023-10-31T00:35:17;10.10;99.90
17599;DHT22;8918;52.092;5.232;2023-10-31T00:37:43;10.10;99.90
17599;DHT22;8918;52.092;5.232;2023-10-31T00:40:09;10.10;99.90
17599;DHT22;8918;52.092;5.232;2023-10-31T00:42:38;10.10;99.90
17599;DHT22;8918;52.092;5.232;2023-10-31T00:45:06;10.20;99.90
17599;DHT22;8918;52.092;5.232;2023-10-31T00:47:32;10.20;99.90
17599;DHT22;8918;52.092;5.232;2023-10-31T00:49:57;10.20;99.90
17599;DHT22;8918;52.092;5.232;2023-10-31T00:52:23;10.20;99.90
17599;DHT22;8918;52.092;5.232;2023-10-31T00:54:49;10.20;99.90
17599;DHT22;8918;52.092;5.232;2023-10-31T00:57:14;10.20;99.90
17599;DHT22;8918;52.092;5.232;2023-10-31T00:59:40;10.20;99.90
17599;DHT22;8918;52.092;5.232;2023-10-31T01:02:05;10.20;99.90
17599;DHT22;8918;52.092;5.232;2023-10-31T01:04:31;10.20;99.90
17599;DHT22;8918;52.092;5.232;2023-10-31T01:06:57;10.20;99.90
17599;DHT22;8918;52.092;5.232;2023-10-31T01:09:22;10.20;99.90
17599;DHT22;8918;52.092;5.232;2023-10-31T01:11:48;10.20;99.90
17599;DHT22;8918;52.092;5.232;2023-10-31T01:14:13;10.20;99.90
17599;DHT22;8918;52.092;5.232;2023-10-31T01:16:40;10.20;99.90
17599;DHT22;8918;52.092;5.232;2023-10-31T01:19:05;10.20;99.90
17599;DHT22;8918;52.092;5.232;2023-10-31T01:21:31;10.20;99.90
17599;DHT22;8918;52.092;5.232;2023-10-31T01:23:58;10.20;99.90
17599;DHT22;8918;52.092;5.232;2023-10-31T01:26:24;10.10;99.90
17599;DHT22;8918;52.092;5.232;2023-10-31T01:28:49;10.20;99.90
17599;DHT22;8918;52.092;5.232;2023-10-31T01:31:15;10.20;99.90
17599;DHT22;8918;52.092;5.232;2023-10-31T01:33:40;10.20;99.90
17599;DHT22;8918;52.092;5.232;2023-10-31T01:36:06;10.10;99.90
17599;DHT22;8918;52.092;5.232;2023-10-31T01:38:32;10.10;99.90
17599;DHT22;8918;52.092;5.232;2023-10-31T01:40:57;10.10;99.90
17599;DHT22;8918;52.092;5.232;2023-10-31T01:43:33;10.10;99.90
17599;DHT22;8918;52.092;5.232;2023-10-31T01:45:59;10.20;99.90
17599;DHT22;8918;52.092;5.232;2023-10-31T01:48:27;10.20;99.90
17599;DHT22;8918;52.092;5.232;2023-10-31T01:50:53;10.20;99.90
17599;DHT22;8918;52.092;5.232;2023-10-31T01:53:19;10.20;99.90
17599;DHT22;8918;52.092;5.232;2023-10-31T01:55:45;10.20;99.90
17599;DHT22;8918;52.092;5.232;2023-10-31T01:58:12;10.20;99.90
17599;DHT22;8918;52.092;5.232;2023-10-31T02:00:41;10.30;99.90
17599;DHT22;8918;52.092;5.232;2023-10-31T02:03:08;10.30;99.90
17599;DHT22;8918;52.092;5.232;2023-10-31T02:05:34;10.30;99.90
17599;DHT22;8918;52.092;5.232;2023-10-31T02:08:03;10.30;99.90
17599;DHT22;8918;52.092;5.232;2023-10-31T02:10:29;10.20;99.90
17599;DHT22;8918;52.092;5.232;2023-10-31T02:12:55;10.30;99.90
17599;DHT22;8918;52.092;5.232;2023-10-31T02:15:20;10.30;99.90
17599;DHT22;8918;52.092;5.232;2023-10-31T02:17:46;10.30;99.90
17599;DHT22;8918;52.092;5.232;2023-10-31T02:20:11;10.30;99.90
17599;DHT22;8918;52.092;5.232;2023-10-31T02:22:37;10.20;99.90
17599;DHT22;8918;52.092;5.232;2023-10-31T02:25:03;10.30;99.90
17599;DHT22;8918;52.092;5.232;2023-10-31T02:27:28;10.30;99.90
17599;DHT22;8918;52.092;5.232;2023-10-31T02:29:54;10.30;99.90
17599;DHT22;8918;52.092;5.232;2023-10-31T02:32:20;10.30;99.90
17599;DHT22;8918;52.092;5.232;2023-10-31T02:34:45;10.30;99.90
17599;DHT22;8918;52.092;5.232;2023-10-31T02:37:11;10.30;99.90
17599;DHT22;8918;52.092;5.232;2023-10-31T02:39:37;10.30;99.90
17599;DHT22;8918;52.092;5.232;2023-10-31T02:42:03;10.30;99.90
17599;DHT22;8918;52.092;5.232;2023-10-31T02:44:28;10.30;99.90
17599;DHT22;8918;52.092;5.232;2023-10-31T02:46:54;10.40;99.90
17599;DHT22;8918;52.092;5.232;2023-10-31T02:49:21;10.40;99.90
17599;DHT22;8918;52.092;5.232;2023-10-31T02:51:46;10.40;99.90
17599;DHT22;8918;52.092;5.232;2023-10-31T02:54:12;10.40;99.90
17599;DHT22;8918;52.092;5.232;2023-10-31T02:56:37;10.40;99.90
17599;DHT22;8918;52.092;5.232;2023-10-31T02:59:03;10.40;99.90
17599;DHT22;8918;52.092;5.232;2023-10-31T03:01:29;10.40;99.90
17599;DHT22;8918;52.092;5.232;2023-10-31T03:03:55;10.30;99.90
17599;DHT22;8918;52.092;5.232;2023-10-31T03:06:21;10.30;99.90
17599;DHT22;8918;52.092;5.232;2023-10-31T03:08:47;10.40;99.90
17599;DHT22;8918;52.092;5.232;2023-10-31T03:11:25;10.30;99.90
17599;DHT22;8918;52.092;5.232;2023-10-31T03:13:51;10.30;99.90
17599;DHT22;8918;52.092;5.232;2023-10-31T03:16:18;10.30;99.90
17599;DHT22;8918;52.092;5.232;2023-10-31T03:18:45;10.30;99.90
17599;DHT22;8918;52.092;5.232;2023-10-31T03:21:11;10.30;99.90
17599;DHT22;8918;52.092;5.232;2023-10-31T03:23:37;10.30;99.90
17599;DHT22;8918;52.092;5.232;2023-10-31T03:26:02;10.30;99.90
17599;DHT22;8918;52.092;5.232;2023-10-31T03:28:28;10.20;99.90
17599;DHT22;8918;52.092;5.232;2023-10-31T03:30:54;10.30;99.90
17599;DHT22;8918;52.092;5.232;2023-10-31T03:33:19;10.30;99.90
17599;DHT22;8918;52.092;5.232;2023-10-31T03:35:45;10.30;99.90
17599;DHT22;8918;52.092;5.232;2023-10-31T03:38:11;10.20;99.90
17599;DHT22;8918;52.092;5.232;2023-10-31T03:40:37;10.20;99.90
17599;DHT22;8918;52.092;5.232;2023-10-31T03:43:02;10.20;99.90
17599;DHT22;8918;52.092;5.232;2023-10-31T03:45:29;10.20;99.90
17599;DHT22;8918;52.092;5.232;2023-10-31T03:47:54;10.30;99.90
17599;DHT22;8918;52.092;5.232;2023-10-31T03:50:20;10.30;99.90
17599;DHT22;8918;52.092;5.232;2023-10-31T03:52:45;10.20;99.90
17599;DHT22;8918;52.092;5.232;2023-10-31T03:55:11;10.30;99.90
17599;DHT22;8918;52.092;5.232;2023-10-31T03:57:36;10.30;99.90
17599;DHT22;8918;52.092;5.232;2023-10-31T04:00:02;10.30;99.90
17599;DHT22;8918;52.092;5.232;2023-10-31T04:02:30;10.20;99.90
17599;DHT22;8918;52.092;5.232;2023-10-31T04:04:55;10.20;99.90
17599;DHT22;8918;52.092;5.232;2023-10-31T04:07:21;10.20;99.90
17599;DHT22;8918;52.092;5.232;2023-10-31T04:09:46;10.20;99.90
17599;DHT22;8918;52.092;5.232;2023-10-31T04:12:12;10.20;99.90
17599;DHT22;8918;52.092;5.232;2023-10-31T04:14:38;10.20;99.90
17599;DHT22;8918;52.092;5.232;2023-10-31T04:17:04;10.20;99.90
17599;DHT22;8918;52.092;5.232;2023-10-31T04:19:30;10.20;99.90
17599;DHT22;8918;52.092;5.232;2023-10-31T04:21:55;10.20;99.90
17599;DHT22;8918;52.092;5.232;2023-10-31T04:24:21;10.10;99.90
17599;DHT22;8918;52.092;5.232;2023-10-31T04:26:46;10.20;99.90
17599;DHT22;8918;52.092;5.232;2023-10-31T04:29:12;10.10;99.90
17599;DHT22;8918;52.092;5.232;2023-10-31T04:31:38;10.10;99.90
17599;DHT22;8918;52.092;5.232;2023-10-31T04:34:03;10.10;99.90
17599;DHT22;8918;52.092;5.232;2023-10-31T04:36:29;10.10;99.90
17599;DHT22;8918;52.092;5.232;2023-10-31T04:38:54;10.10;99.90
17599;DHT22;8918;52.092;5.232;2023-10-31T04:41:20;10.10;99.90
17599;DHT22;8918;52.092;5.232;2023-10-31T04:43:46;10.00;99.90
17599;DHT22;8918;52.092;5.232;2023-10-31T04:46:11;10.00;99.90
17599;DHT22;8918;52.092;5.232;2023-10-31T04:48:37;10.00;99.90
17599;DHT22;8918;52.092;5.232;2023-10-31T04:51:03;10.00;99.90
17599;DHT22;8918;52.092;5.232;2023-10-31T04:53:28;10.00;99.90
17599;DHT22;8918;52.092;5.232;2023-10-31T04:55:54;10.00;99.90
17599;DHT22;8918;52.092;5.232;2023-10-31T04:58:20;10.00;99.90
17599;DHT22;8918;52.092;5.232;2023-10-31T05:00:46;10.00;99.90
17599;DHT22;8918;52.092;5.232;2023-10-31T05:03:12;10.00;99.90
17599;DHT22;8918;52.092;5.232;2023-10-31T05:05:38;10.00;99.90
17599;DHT22;8918;52.092;5.232;2023-10-31T05:08:03;10.00;99.90
17599;DHT22;8918;52.092;5.232;2023-10-31T05:10:29;10.00;99.90
17599;DHT22;8918;52.092;5.232;2023-10-31T05:12:54;9.90;99.90
17599;DHT22;8918;52.092;5.232;2023-10-31T05:15:20;9.90;99.90
17599;DHT22;8918;52.092;5.232;2023-10-31T05:17:45;9.90;99.90
17599;DHT22;8918;52.092;5.232;2023-10-31T05:20:11;9.90;99.90
17599;DHT22;8918;52.092;5.232;2023-10-31T05:22:37;9.90;99.90
17599;DHT22;8918;52.092;5.232;2023-10-31T05:25:03;9.90;99.90
17599;DHT22;8918;52.092;5.232;2023-10-31T05:27:29;9.90;99.90
17599;DHT22;8918;52.092;5.232;2023-10-31T05:29:54;9.90;99.90
17599;DHT22;8918;52.092;5.232;2023-10-31T05:32:20;9.90;99.90
17599;DHT22;8918;52.092;5.232;2023-10-31T05:34:45;9.90;99.90
17599;DHT22;8918;52.092;5.232;2023-10-31T05:37:11;9.90;99.90
17599;DHT22;8918;52.092;5.232;2023-10-31T05:39:36;9.90;99.90
17599;DHT22;8918;52.092;5.232;2023-10-31T05:42:03;9.90;99.90
17599;DHT22;8918;52.092;5.232;2023-10-31T05:44:28;9.90;99.90
17599;DHT22;8918;52.092;5.232;2023-10-31T05:46:54;9.90;99.90
17599;DHT22;8918;52.092;5.232;2023-10-31T05:49:20;9.80;99.90
17599;DHT22;8918;52.092;5.232;2023-10-31T05:51:54;9.80;99.90
17599;DHT22;8918;52.092;5.232;2023-10-31T05:54:20;9.80;99.90
17599;DHT22;8918;52.092;5.232;2023-10-31T05:56:46;9.80;99.90
17599;DHT22;8918;52.092;5.232;2023-10-31T05:59:12;9.80;99.90
17599;DHT22;8918;52.092;5.232;2023-10-31T06:01:38;9.80;99.90
17599;DHT22;8918;52.092;5.232;2023-10-31T06:04:03;9.80;99.90
17599;DHT22;8918;52.092;5.232;2023-10-31T06:06:37;9.80;99.90
17599;DHT22;8918;52.092;5.232;2023-10-31T06:09:12;9.80;99.90
17599;DHT22;8918;52.092;5.232;2023-10-31T06:11:41;9.80;99.90
17599;DHT22;8918;52.092;5.232;2023-10-31T06:14:08;9.80;99.90
17599;DHT22;8918;52.092;5.232;2023-10-31T06:16:40;9.80;99.90
17599;DHT22;8918;52.092;5.232;2023-10-31T06:19:06;9.80;99.90
17599;DHT22;8918;52.092;5.232;2023-10-31T06:21:32;9.70;99.90
17599;DHT22;8918;52.092;5.232;2023-10-31T06:23:57;9.70;99.90
17599;DHT22;8918;52.092;5.232;2023-10-31T06:26:23;9.70;99.90
17599;DHT22;8918;52.092;5.232;2023-10-31T06:28:48;9.70;99.90
17599;DHT22;8918;52.092;5.232;2023-10-31T06:31:14;9.70;99.90
17599;DHT22;8918;52.092;5.232;2023-10-31T06:33:39;9.70;99.90
17599;DHT22;8918;52.092;5.232;2023-10-31T06:36:06;9.70;99.90
17599;DHT22;8918;52.092;5.232;2023-10-31T06:38:32;9.70;99.90
17599;DHT22;8918;52.092;5.232;2023-10-31T06:40:57;9.70;99.90
17599;DHT22;8918;52.092;5.232;2023-10-31T06:43:23;9.70;99.90
17599;DHT22;8918;52.092;5.232;2023-10-31T06:45:48;9.70;99.90
17599;DHT22;8918;52.092;5.232;2023-10-31T06:48:14;9.70;99.90
17599;DHT22;8918;52.092;5.232;2023-10-31T06:50:40;9.70;99.90
17599;DHT22;8918;52.092;5.232;2023-10-31T06:53:05;9.70;99.90
17599;DHT22;8918;52.092;5.232;2023-10-31T06:55:31;9.70;99.90
17599;DHT22;8918;52.092;5.232;2023-10-31T06:57:56;9.70;99.90
17599;DHT22;8918;52.092;5.232;2023-10-31T07:00:22;9.70;99.90
17599;DHT22;8918;52.092;5.232;2023-10-31T07:02:48;9.70;99.90
17599;DHT22;8918;52.092;5.232;2023-10-31T07:05:13;9.70;99.90
17599;DHT22;8918;52.092;5.232;2023-10-31T07:07:40;9.70;99.90
17599;DHT22;8918;52.092;5.232;2023-10-31T07:10:06;9.70;99.90
17599;DHT22;8918;52.092;5.232;2023-10-31T07:12:32;9.70;99.90
17599;DHT22;8918;52.092;5.232;2023-10-31T07:14:58;9.70;99.90
17599;DHT22;8918;52.092;5.232;2023-10-31T07:17:24;9.80;99.90
17599;DHT22;8918;52.092;5.232;2023-10-31T07:19:50;9.80;99.90
17599;DHT22;8918;52.092;5.232;2023-10-31T07:22:16;9.90;99.90
17599;DHT22;8918;52.092;5.232;2023-10-31T07:24:41;9.90;99.90
17599;DHT22;8918;52.092;5.232;2023-10-31T07:27:08;9.90;99.90
17599;DHT22;8918;52.092;5.232;2023-10-31T07:29:34;9.90;99.90
17599;DHT22;8918;52.092;5.232;2023-10-31T07:32:00;10.00;99.90
17599;DHT22;8918;52.092;5.232;2023-10-31T07:34:26;10.10;99.90
17599;DHT22;8918;52.092;5.232;2023-10-31T07:36:51;10.10;99.90
17599;DHT22;8918;52.092;5.232;2023-10-31T07:39:17;10.20;99.90
17599;DHT22;8918;52.092;5.232;2023-10-31T07:41:43;10.20;99.90
17599;DHT22;8918;52.092;5.232;2023-10-31T07:44:08;10.20;99.90
17599;DHT22;8918;52.092;5.232;2023-10-31T07:46:34;10.20;99.90
17599;DHT22;8918;52.092;5.232;2023-10-31T07:49:00;10.20;99.90
17599;DHT22;8918;52.092;5.232;2023-10-31T07:51:25;10.20;99.90
17599;DHT22;8918;52.092;5.232;2023-10-31T07:53:51;10.20;99.90
17599;DHT22;8918;52.092;5.232;2023-10-31T07:56:18;10.20;99.90
17599;DHT22;8918;52.092;5.232;2023-10-31T07:58:51;10.20;99.90
17599;DHT22;8918;52.092;5.232;2023-10-31T08:01:20;10.30;99.90
17599;DHT22;8918;52.092;5.232;2023-10-31T08:03:47;10.30;99.90
17599;DHT22;8918;52.092;5.232;2023-10-31T08:06:13;10.30;99.90
17599;DHT22;8918;52.092;5.232;2023-10-31T08:08:38;10.40;99.90
17599;DHT22;8918;52.092;5.232;2023-10-31T08:11:07;10.50;99.90
17599;DHT22;8918;52.092;5.232;2023-10-31T08:13:33;10.50;99.90
17599;DHT22;8918;52.092;5.232;2023-10-31T08:15:59;10.60;99.90
17599;DHT22;8918;52.092;5.232;2023-10-31T08:18:24;10.60;99.90
17599;DHT22;8918;52.092;5.232;2023-10-31T08:20:50;10.70;99.90
17599;DHT22;8918;52.092;5.232;2023-10-31T08:23:17;10.70;99.90
17599;DHT22;8918;52.092;5.232;2023-10-31T08:25:43;10.70;99.90
17599;DHT22;8918;52.092;5.232;2023-10-31T08:28:09;10.70;99.90
17599;DHT22;8918;52.092;5.232;2023-10-31T08:30:34;10.70;99.90
17599;DHT22;8918;52.092;5.232;2023-10-31T08:33:00;10.70;99.90
17599;DHT22;8918;52.092;5.232;2023-10-31T08:35:26;10.80;99.90
17599;DHT22;8918;52.092;5.232;2023-10-31T08:37:53;10.80;99.90
17599;DHT22;8918;52.092;5.232;2023-10-31T08:40:19;10.80;99.90
17599;DHT22;8918;52.092;5.232;2023-10-31T08:42:44;10.90;99.90
17599;DHT22;8918;52.092;5.232;2023-10-31T08:45:10;11.00;99.90
17599;DHT22;8918;52.092;5.232;2023-10-31T08:47:35;11.00;99.90
17599;DHT22;8918;52.092;5.232;2023-10-31T08:50:01;11.10;99.90
17599;DHT22;8918;52.092;5.232;2023-10-31T08:52:27;11.10;99.90
17599;DHT22;8918;52.092;5.232;2023-10-31T08:54:52;11.20;99.90
17599;DHT22;8918;52.092;5.232;2023-10-31T08:57:18;11.20;99.90
17599;DHT22;8918;52.092;5.232;2023-10-31T08:59:43;11.30;99.90
17599;DHT22;8918;52.092;5.232;2023-10-31T09:02:09;11.40;99.90
17599;DHT22;8918;52.092;5.232;2023-10-31T09:04:34;11.40;99.90
17599;DHT22;8918;52.092;5.232;2023-10-31T09:07:00;11.50;99.90
17599;DHT22;8918;52.092;5.232;2023-10-31T09:09:26;11.60;99.90
17599;DHT22;8918;52.092;5.232;2023-10-31T09:11:52;11.70;99.90
17599;DHT22;8918;52.092;5.232;2023-10-31T09:14:17;11.80;99.90
17599;DHT22;8918;52.092;5.232;2023-10-31T09:16:43;11.90;99.90
17599;DHT22;8918;52.092;5.232;2023-10-31T09:19:09;12.00;99.90
17599;DHT22;8918;52.092;5.232;2023-10-31T09:21:34;12.10;99.90
17599;DHT22;8918;52.092;5.232;2023-10-31T09:24:00;12.10;99.90
17599;DHT22;8918;52.092;5.232;2023-10-31T09:26:26;12.20;99.90
17599;DHT22;8918;52.092;5.232;2023-10-31T09:28:51;12.40;99.90
17599;DHT22;8918;52.092;5.232;2023-10-31T09:31:17;12.60;99.90
17599;DHT22;8918;52.092;5.232;2023-10-31T09:33:44;12.80;99.90
17599;DHT22;8918;52.092;5.232;2023-10-31T09:36:09;12.90;99.90
17599;DHT22;8918;52.092;5.232;2023-10-31T09:38:35;12.90;99.90
17599;DHT22;8918;52.092;5.232;2023-10-31T09:41:01;12.90;99.90
17599;DHT22;8918;52.092;5.232;2023-10-31T09:43:27;12.70;99.90
17599;DHT22;8918;52.092;5.232;2023-10-31T09:45:52;12.60;99.90
17599;DHT22;8918;52.092;5.232;2023-10-31T09:48:19;12.70;99.90
17599;DHT22;8918;52.092;5.232;2023-10-31T09:50:46;13.00;99.90
17599;DHT22;8918;52.092;5.232;2023-10-31T09:53:14;13.10;99.90
17599;DHT22;8918;52.092;5.232;2023-10-31T09:55:45;13.40;99.90
17599;DHT22;8918;52.092;5.232;2023-10-31T09:58:11;13.60;99.90
17599;DHT22;8918;52.092;5.232;2023-10-31T10:00:37;13.80;99.90
17599;DHT22;8918;52.092;5.232;2023-10-31T10:03:06;14.00;99.90
17599;DHT22;8918;52.092;5.232;2023-10-31T10:05:35;14.00;99.90
17599;DHT22;8918;52.092;5.232;2023-10-31T10:08:03;14.00;99.90
17599;DHT22;8918;52.092;5.232;2023-10-31T10:10:28;14.00;99.90
17599;DHT22;8918;52.092;5.232;2023-10-31T10:12:55;14.00;99.90
17599;DHT22;8918;52.092;5.232;2023-10-31T10:15:21;14.20;99.90
17599;DHT22;8918;52.092;5.232;2023-10-31T10:17:53;14.30;99.90
17599;DHT22;8918;52.092;5.232;2023-10-31T10:20:19;14.50;99.90
17599;DHT22;8918;52.092;5.232;2023-10-31T10:22:46;14.80;99.90
17599;DHT22;8918;52.092;5.232;2023-10-31T10:25:14;14.80;99.90
17599;DHT22;8918;52.092;5.232;2023-10-31T10:27:44;14.70;99.90
17599;DHT22;8918;52.092;5.232;2023-10-31T10:30:11;14.60;99.90
17599;DHT22;8918;52.092;5.232;2023-10-31T10:32:37;14.60;99.90
17599;DHT22;8918;52.092;5.232;2023-10-31T10:35:03;14.80;99.90
17599;DHT22;8918;52.092;5.232;2023-10-31T10:37:29;14.70;99.90
17599;DHT22;8918;52.092;5.232;2023-10-31T10:39:56;14.50;99.90
17599;DHT22;8918;52.092;5.232;2023-10-31T10:42:32;14.30;99.90
17599;DHT22;8918;52.092;5.232;2023-10-31T10:45:03;14.40;99.90
17599;DHT22;8918;52.092;5.232;2023-10-31T10:47:31;14.50;99.90
17599;DHT22;8918;52.092;5.232;2023-10-31T10:49:59;14.60;99.90
17599;DHT22;8918;52.092;5.232;2023-10-31T10:52:49;14.50;99.90
17599;DHT22;8918;52.092;5.232;2023-10-31T10:55:21;14.60;99.90
17599;DHT22;8918;52.092;5.232;2023-10-31T10:58:09;14.70;99.90
17599;DHT22;8918;52.092;5.232;2023-10-31T11:00:39;14.70;99.90
17599;DHT22;8918;52.092;5.232;2023-10-31T11:03:06;14.90;99.90
17599;DHT22;8918;52.092;5.232;2023-10-31T11:05:32;15.10;99.90
17599;DHT22;8918;52.092;5.232;2023-10-31T11:07:59;15.30;99.90
17599;DHT22;8918;52.092;5.232;2023-10-31T11:10:25;15.40;99.90
17599;DHT22;8918;52.092;5.232;2023-10-31T11:12:51;15.40;99.90
17599;DHT22;8918;52.092;5.232;2023-10-31T11:15:17;15.10;99.90
17599;DHT22;8918;52.092;5.232;2023-10-31T11:17:44;14.70;99.90
17599;DHT22;8918;52.092;5.232;2023-10-31T11:20:12;14.40;99.90
17599;DHT22;8918;52.092;5.232;2023-10-31T11:22:40;14.30;99.90
17599;DHT22;8918;52.092;5.232;2023-10-31T11:25:11;14.10;99.90
17599;DHT22;8918;52.092;5.232;2023-10-31T11:27:37;14.00;99.90
17599;DHT22;8918;52.092;5.232;2023-10-31T11:30:29;13.90;99.90
17599;DHT22;8918;52.092;5.232;2023-10-31T11:32:58;13.80;99.90
17599;DHT22;8918;52.092;5.232;2023-10-31T11:35:24;13.80;99.90
17599;DHT22;8918;52.092;5.232;2023-10-31T11:38:02;13.80;99.90
17599;DHT22;8918;52.092;5.232;2023-10-31T11:40:37;13.80;99.90
17599;DHT22;8918;52.092;5.232;2023-10-31T11:43:05;13.70;99.90
17599;DHT22;8918;52.092;5.232;2023-10-31T11:45:41;13.60;99.90
17599;DHT22;8918;52.092;5.232;2023-10-31T11:48:08;13.40;99.90
17599;DHT22;8918;52.092;5.232;2023-10-31T11:50:36;13.30;99.90
17599;DHT22;8918;52.092;5.232;2023-10-31T11:55:27;13.20;99.90
17599;DHT22;8918;52.092;5.232;2023-10-31T11:57:53;13.20;99.90
17599;DHT22;8918;52.092;5.232;2023-10-31T12:00:23;13.20;99.90
17599;DHT22;8918;52.092;5.232;2023-10-31T12:03:01;13.20;99.90
17599;DHT22;8918;52.092;5.232;2023-10-31T12:05:28;13.20;99.90
17599;DHT22;8918;52.092;5.232;2023-10-31T12:07:53;13.10;99.90
17599;DHT22;8918;52.092;5.232;2023-10-31T12:10:27;13.10;99.90
17599;DHT22;8918;52.092;5.232;2023-10-31T12:12:55;13.20;99.90
17599;DHT22;8918;52.092;5.232;2023-10-31T12:15:22;13.20;99.90
17599;DHT22;8918;52.092;5.232;2023-10-31T12:17:48;13.20;99.90
17599;DHT22;8918;52.092;5.232;2023-10-31T12:20:14;13.10;99.90
17599;DHT22;8918;52.092;5.232;2023-10-31T12:22:39;13.10;99.90
17599;DHT22;8918;52.092;5.232;2023-10-31T12:25:09;13.10;99.90
17599;DHT22;8918;52.092;5.232;2023-10-31T12:27:48;13.10;99.90
17599;DHT22;8918;52.092;5.232;2023-10-31T12:30:19;13.10;99.90
17599;DHT22;8918;52.092;5.232;2023-10-31T12:32:56;13.10;99.90
17599;DHT22;8918;52.092;5.232;2023-10-31T12:35:24;13.10;99.90
17599;DHT22;8918;52.092;5.232;2023-10-31T12:37:51;13.10;99.90
17599;DHT22;8918;52.092;5.232;2023-10-31T12:40:18;13.10;99.90
17599;DHT22;8918;52.092;5.232;2023-10-31T12:42:45;13.10;99.90
17599;DHT22;8918;52.092;5.232;2023-10-31T12:45:14;13.10;99.90
17599;DHT22;8918;52.092;5.232;2023-10-31T12:47:40;13.00;99.90
17599;DHT22;8918;52.092;5.232;2023-10-31T12:53:00;12.90;99.90
17599;DHT22;8918;52.092;5.232;2023-10-31T12:55:30;12.90;99.90
17599;DHT22;8918;52.092;5.232;2023-10-31T12:57:56;12.80;99.90
17599;DHT22;8918;52.092;5.232;2023-10-31T13:00:33;12.80;99.90
17599;DHT22;8918;52.092;5.232;2023-10-31T13:05:28;12.90;99.90
17599;DHT22;8918;52.092;5.232;2023-10-31T13:07:55;12.90;99.90
17599;DHT22;8918;52.092;5.232;2023-10-31T13:10:23;12.90;99.90
17599;DHT22;8918;52.092;5.232;2023-10-31T13:12:50;12.90;99.90
17599;DHT22;8918;52.092;5.232;2023-10-31T13:15:17;12.80;99.90
17599;DHT22;8918;52.092;5.232;2023-10-31T13:17:47;12.80;99.90
17599;DHT22;8918;52.092;5.232;2023-10-31T13:20:14;12.90;99.90
17599;DHT22;8918;52.092;5.232;2023-10-31T13:22:41;12.90;99.90
17599;DHT22;8918;52.092;5.232;2023-10-31T13:25:09;12.80;99.90
17599;DHT22;8918;52.092;5.232;2023-10-31T13:27:36;12.80;99.90
17599;DHT22;8918;52.092;5.232;2023-10-31T13:30:03;12.80;99.90
17599;DHT22;8918;52.092;5.232;2023-10-31T13:32:29;12.70;99.90
17599;DHT22;8918;52.092;5.232;2023-10-31T13:34:54;12.70;99.90
17599;DHT22;8918;52.092;5.232;2023-10-31T13:37:20;12.70;99.90
17599;DHT22;8918;52.092;5.232;2023-10-31T13:39:46;12.70;99.90
17599;DHT22;8918;52.092;5.232;2023-10-31T13:42:12;12.70;99.90
17599;DHT22;8918;52.092;5.232;2023-10-31T13:44:37;12.60;99.90
17599;DHT22;8918;52.092;5.232;2023-10-31T13:47:03;12.50;99.90
17599;DHT22;8918;52.092;5.232;2023-10-31T13:49:29;12.40;99.90
17599;DHT22;8918;52.092;5.232;2023-10-31T13:51:55;12.40;99.90
17599;DHT22;8918;52.092;5.232;2023-10-31T13:54:20;12.40;99.90
17599;DHT22;8918;52.092;5.232;2023-10-31T13:56:47;12.30;99.90
17599;DHT22;8918;52.092;5.232;2023-10-31T13:59:12;12.30;99.90
17599;DHT22;8918;52.092;5.232;2023-10-31T14:01:38;12.30;99.90
17599;DHT22;8918;52.092;5.232;2023-10-31T14:04:06;12.40;99.90
17599;DHT22;8918;52.092;5.232;2023-10-31T14:06:31;12.30;99.90
17599;DHT22;8918;52.092;5.232;2023-10-31T14:08:58;12.30;99.90
17599;DHT22;8918;52.092;5.232;2023-10-31T14:11:24;12.40;99.90
17599;DHT22;8918;52.092;5.232;2023-10-31T14:13:50;12.40;99.90
17599;DHT22;8918;52.092;5.232;2023-10-31T14:16:16;12.40;99.90
17599;DHT22;8918;52.092;5.232;2023-10-31T14:18:42;12.40;99.90
17599;DHT22;8918;52.092;5.232;2023-10-31T14:21:08;12.40;99.90
17599;DHT22;8918;52.092;5.232;2023-10-31T14:23:34;12.40;99.90
17599;DHT22;8918;52.092;5.232;2023-10-31T14:26:00;12.40;99.90
17599;DHT22;8918;52.092;5.232;2023-10-31T14:28:25;12.40;99.90
17599;DHT22;8918;52.092;5.232;2023-10-31T14:30:51;12.40;99.90
17599;DHT22;8918;52.092;5.232;2023-10-31T14:33:19;12.40;99.90
17599;DHT22;8918;52.092;5.232;2023-10-31T14:35:45;12.40;99.90
17599;DHT22;8918;52.092;5.232;2023-10-31T14:38:11;12.40;99.90
17599;DHT22;8918;52.092;5.232;2023-10-31T14:40:38;12.40;99.90
17599;DHT22;8918;52.092;5.232;2023-10-31T14:43:04;12.30;99.90
17599;DHT22;8918;52.092;5.232;2023-10-31T14:45:29;12.20;99.90
17599;DHT22;8918;52.092;5.232;2023-10-31T14:47:55;12.20;99.90
17599;DHT22;8918;52.092;5.232;2023-10-31T14:50:20;12.10;99.90
17599;DHT22;8918;52.092;5.232;2023-10-31T14:52:47;12.10;99.90
17599;DHT22;8918;52.092;5.232;2023-10-31T14:55:13;12.10;99.90
17599;DHT22;8918;52.092;5.232;2023-10-31T14:57:38;12.00;99.90
17599;DHT22;8918;52.092;5.232;2023-10-31T15:00:05;12.00;99.90
17599;DHT22;8918;52.092;5.232;2023-10-31T15:02:32;12.00;99.90
17599;DHT22;8918;52.092;5.232;2023-10-31T15:05:00;12.00;99.90
17599;DHT22;8918;52.092;5.232;2023-10-31T15:07:25;11.90;99.90
17599;DHT22;8918;52.092;5.232;2023-10-31T15:09:51;11.90;99.90
17599;DHT22;8918;52.092;5.232;2023-10-31T15:12:16;11.90;99.90
17599;DHT22;8918;52.092;5.232;2023-10-31T15:14:42;11.80;99.90
17599;DHT22;8918;52.092;5.232;2023-10-31T15:17:08;11.80;99.90
17599;DHT22;8918;52.092;5.232;2023-10-31T15:19:34;11.80;99.90
17599;DHT22;8918;52.092;5.232;2023-10-31T15:21:59;11.80;99.90
17599;DHT22;8918;52.092;5.232;2023-10-31T15:24:25;11.70;99.90
17599;DHT22;8918;52.092;5.232;2023-10-31T15:26:50;11.70;99.90
17599;DHT22;8918;52.092;5.232;2023-10-31T15:29:16;11.70;99.90
17599;DHT22;8918;52.092;5.232;2023-10-31T15:31:45;11.60;99.90
17599;DHT22;8918;52.092;5.232;2023-10-31T15:34:11;11.60;99.90
17599;DHT22;8918;52.092;5.232;2023-10-31T15:36:37;11.60;99.90
17599;DHT22;8918;52.092;5.232;2023-10-31T15:39:03;11.60;99.90
17599;DHT22;8918;52.092;5.232;2023-10-31T15:41:28;11.60;99.90
17599;DHT22;8918;52.092;5.232;2023-10-31T15:43:54;11.50;99.90
17599;DHT22;8918;52.092;5.232;2023-10-31T15:46:20;11.50;99.90
17599;DHT22;8918;52.092;5.232;2023-10-31T15:48:46;11.50;99.90
17599;DHT22;8918;52.092;5.232;2023-10-31T15:51:12;11.50;99.90